sensor_id;sensor_type;location;lat;lon;timestamp;P1;durP1;ratioP1;P2;durP2;ratioP2
43670;SDS011;29267;50.906;7.248;2023-11-18T00:01:16;61.58;;;18.30;;
43670;SDS011;29267;50.906;7.248;2023-11-18T00:03:42;108.78;;;18.75;;
43670;SDS011;29267;50.906;7.248;2023-11-18T00:06:08;55.30;;;17.08;;
43670;SDS011;29267;50.906;7.248;2023-11-18T00:08:34;61.28;;;19.73;;
43670;SDS011;29267;50.906;7.248;2023-11-18T00:10:59;88.75;;;17.90;;
43670;SDS011;29267;50.906;7.248;2023-11-18T00:13:25;58.65;;;17.00;;
43670;SDS011;29267;50.906;7.248;2023-11-18T00:15:54;77.40;;;18.80;;
43670;SDS011;29267;50.906;7.248;2023-11-18T00:18:19;55.95;;;16.63;;
43670;SDS011;29267;50.906;7.248;2023-11-18T00:20:45;48.50;;;18.42;;
43670;SDS011;29267;50.906;7.248;2023-11-18T00:23:11;78.55;;;17.58;;
43670;SDS011;29267;50.906;7.248;2023-11-18T00:25:37;59.42;;;18.02;;
43670;SDS011;29267;50.906;7.248;2023-11-18T00:28:05;67.90;;;17.98;;
43670;SDS011;29267;50.906;7.248;2023-11-18T00:30:32;63.67;;;18.63;;
43670;SDS011;29267;50.906;7.248;2023-11-18T00:32:59;65.25;;;18.90;;
43670;SDS011;29267;50.906;7.248;2023-11-18T00:35:24;54.17;;;17.25;;
43670;SDS011;29267;50.906;7.248;2023-11-18T00:37:50;62.40;;;16.88;;
43670;SDS011;29267;50.906;7.248;2023-11-18T00:40:16;56.40;;;18.17;;
43670;SDS011;29267;50.906;7.248;2023-11-18T00:42:45;62.92;;;18.23;;
43670;SDS011;29267;50.906;7.248;2023-11-18T00:45:10;61.08;;;17.65;;
43670;SDS011;29267;50.906;7.248;2023-11-18T00:47:38;85.72;;;17.05;;
43670;SDS011;29267;50.906;7.248;2023-11-18T00:50:07;68.05;;;18.40;;
43670;SDS011;29267;50.906;7.248;2023-11-18T00:52:33;58.90;;;18.55;;
43670;SDS011;29267;50.906;7.248;2023-11-18T00:54:59;71.72;;;18.83;;
43670;SDS011;29267;50.906;7.248;2023-11-18T00:57:26;57.70;;;17.63;;
43670;SDS011;29267;50.906;7.248;2023-11-18T00:59:52;70.93;;;20.02;;
43670;SDS011;29267;50.906;7.248;2023-11-18T01:02:17;69.93;;;17.73;;
43670;SDS011;29267;50.906;7.248;2023-11-18T01:04:46;56.55;;;16.63;;
43670;SDS011;29267;50.906;7.248;2023-11-18T01:07:12;62.35;;;19.17;;
43670;SDS011;29267;50.906;7.248;2023-11-18T01:09:38;61.22;;;17.52;;
43670;SDS011;29267;50.906;7.248;2023-11-18T01:12:04;66.13;;;18.95;;
43670;SDS011;29267;50.906;7.248;2023-11-18T01:14:35;54.83;;;18.05;;
43670;SDS011;29267;50.906;7.248;2023-11-18T01:17:02;90.60;;;19.00;;
43670;SDS011;29267;50.906;7.248;2023-11-18T01:19:29;65.75;;;20.38;;
43670;SDS011;29267;50.906;7.248;2023-11-18T01:21:54;60.80;;;17.90;;
43670;SDS011;29267;50.906;7.248;2023-11-18T01:24:20;53.50;;;18.85;;
43670;SDS011;29267;50.906;7.248;2023-11-18T01:26:47;61.78;;;16.98;;
43670;SDS011;29267;50.906;7.248;2023-11-18T01:29:12;54.17;;;15.85;;
43670;SDS011;29267;50.906;7.248;2023-11-18T01:31:38;50.65;;;15.73;;
43670;SDS011;29267;50.906;7.248;2023-11-18T01:34:06;46.30;;;15.70;;
43670;SDS011;29267;50.906;7.248;2023-11-18T01:36:37;40.97;;;14.80;;
43670;SDS011;29267;50.906;7.248;2023-11-18T01:39:03;52.40;;;17.17;;
43670;SDS011;29267;50.906;7.248;2023-11-18T01:41:29;53.63;;;17.08;;
43670;SDS011;29267;50.906;7.248;2023-11-18T01:43:57;47.58;;;16.00;;
43670;SDS011;29267;50.906;7.248;2023-11-18T01:46:24;55.17;;;17.13;;
43670;SDS011;29267;50.906;7.248;2023-11-18T01:48:50;52.92;;;17.80;;
43670;SDS011;29267;50.906;7.248;2023-11-18T01:51:17;53.50;;;16.85;;
43670;SDS011;29267;50.906;7.248;2023-11-18T01:53:46;49.65;;;17.55;;
43670;SDS011;29267;50.906;7.248;2023-11-18T01:56:15;46.25;;;15.82;;
43670;SDS011;29267;50.906;7.248;2023-11-18T01:58:41;52.40;;;16.45;;
43670;SDS011;29267;50.906;7.248;2023-11-18T02:01:07;48.60;;;16.48;;
43670;SDS011;29267;50.906;7.248;2023-11-18T02:03:35;50.00;;;16.45;;
43670;SDS011;29267;50.906;7.248;2023-11-18T02:06:01;48.30;;;15.50;;
43670;SDS011;29267;50.906;7.248;2023-11-18T02:08:30;48.67;;;15.88;;
43670;SDS011;29267;50.906;7.248;2023-11-18T02:11:10;46.58;;;15.80;;
43670;SDS011;29267;50.906;7.248;2023-11-18T02:13:42;56.05;;;18.67;;
43670;SDS011;29267;50.906;7.248;2023-11-18T02:16:13;49.85;;;16.30;;
43670;SDS011;29267;50.906;7.248;2023-11-18T02:18:40;52.70;;;18.63;;
43670;SDS011;29267;50.906;7.248;2023-11-18T02:21:08;43.35;;;16.15;;
43670;SDS011;29267;50.906;7.248;2023-11-18T02:23:36;52.70;;;17.42;;
43670;SDS011;29267;50.906;7.248;2023-11-18T02:26:03;55.42;;;16.83;;
43670;SDS011;29267;50.906;7.248;2023-11-18T02:28:30;53.67;;;16.05;;
43670;SDS011;29267;50.906;7.248;2023-11-18T02:30:59;50.55;;;17.70;;
43670;SDS011;29267;50.906;7.248;2023-11-18T02:36:06;46.17;;;17.00;;
43670;SDS011;29267;50.906;7.248;2023-11-18T02:38:39;57.42;;;18.20;;
43670;SDS011;29267;50.906;7.248;2023-11-18T02:41:12;64.22;;;18.95;;
43670;SDS011;29267;50.906;7.248;2023-11-18T02:43:40;43.00;;;15.85;;
43670;SDS011;29267;50.906;7.248;2023-11-18T02:46:09;56.33;;;17.70;;
43670;SDS011;29267;50.906;7.248;2023-11-18T02:48:38;43.10;;;15.32;;
43670;SDS011;29267;50.906;7.248;2023-11-18T02:51:04;47.78;;;17.38;;
43670;SDS011;29267;50.906;7.248;2023-11-18T02:53:33;47.17;;;16.08;;
43670;SDS011;29267;50.906;7.248;2023-11-18T02:55:59;54.03;;;18.27;;
43670;SDS011;29267;50.906;7.248;2023-11-18T02:58:29;49.97;;;15.20;;
43670;SDS011;29267;50.906;7.248;2023-11-18T03:00:55;48.72;;;17.17;;
43670;SDS011;29267;50.906;7.248;2023-11-18T03:03:20;47.13;;;17.13;;
43670;SDS011;29267;50.906;7.248;2023-11-18T03:05:46;40.92;;;14.98;;
43670;SDS011;29267;50.906;7.248;2023-11-18T03:08:15;41.65;;;14.73;;
43670;SDS011;29267;50.906;7.248;2023-11-18T03:10:41;45.50;;;15.48;;
43670;SDS011;29267;50.906;7.248;2023-11-18T03:13:09;45.05;;;15.82;;
43670;SDS011;29267;50.906;7.248;2023-11-18T03:15:37;49.67;;;15.05;;
43670;SDS011;29267;50.906;7.248;2023-11-18T03:18:03;37.97;;;14.80;;
43670;SDS011;29267;50.906;7.248;2023-11-18T03:20:30;39.85;;;14.45;;
43670;SDS011;29267;50.906;7.248;2023-11-18T03:22:59;39.10;;;15.05;;
43670;SDS011;29267;50.906;7.248;2023-11-18T03:25:28;42.67;;;16.88;;
43670;SDS011;29267;50.906;7.248;2023-11-18T03:27:54;42.85;;;15.60;;
43670;SDS011;29267;50.906;7.248;2023-11-18T03:30:19;42.65;;;16.30;;
43670;SDS011;29267;50.906;7.248;2023-11-18T03:32:45;44.63;;;16.02;;
43670;SDS011;29267;50.906;7.248;2023-11-18T03:35:11;48.92;;;17.10;;
43670;SDS011;29267;50.906;7.248;2023-11-18T03:37:37;38.72;;;15.75;;
43670;SDS011;29267;50.906;7.248;2023-11-18T03:40:08;46.00;;;14.85;;
43670;SDS011;29267;50.906;7.248;2023-11-18T03:42:35;41.65;;;16.35;;
43670;SDS011;29267;50.906;7.248;2023-11-18T03:45:02;41.70;;;15.98;;
43670;SDS011;29267;50.906;7.248;2023-11-18T03:47:28;38.92;;;15.00;;
43670;SDS011;29267;50.906;7.248;2023-11-18T03:49:55;36.65;;;14.95;;
43670;SDS011;29267;50.906;7.248;2023-11-18T03:52:21;37.13;;;14.82;;
43670;SDS011;29267;50.906;7.248;2023-11-18T03:54:46;43.25;;;15.93;;
43670;SDS011;29267;50.906;7.248;2023-11-18T03:57:12;39.20;;;14.57;;
43670;SDS011;29267;50.906;7.248;2023-11-18T03:59:41;41.30;;;15.45;;
43670;SDS011;29267;50.906;7.248;2023-11-18T04:02:07;34.35;;;14.15;;
43670;SDS011;29267;50.906;7.248;2023-11-18T04:04:34;38.60;;;13.25;;
43670;SDS011;29267;50.906;7.248;2023-11-18T04:07:00;36.10;;;13.57;;
43670;SDS011;29267;50.906;7.248;2023-11-18T04:09:26;38.25;;;14.77;;
43670;SDS011;29267;50.906;7.248;2023-11-18T04:11:52;30.02;;;12.38;;
43670;SDS011;29267;50.906;7.248;2023-11-18T04:14:18;34.38;;;14.00;;
43670;SDS011;29267;50.906;7.248;2023-11-18T04:16:45;33.97;;;14.10;;
43670;SDS011;29267;50.906;7.248;2023-11-18T04:19:11;41.50;;;14.88;;
43670;SDS011;29267;50.906;7.248;2023-11-18T04:21:37;46.25;;;17.38;;
43670;SDS011;29267;50.906;7.248;2023-11-18T04:24:03;34.50;;;14.88;;
43670;SDS011;29267;50.906;7.248;2023-11-18T04:26:30;32.08;;;13.90;;
43670;SDS011;29267;50.906;7.248;2023-11-18T04:28:57;34.60;;;13.20;;
43670;SDS011;29267;50.906;7.248;2023-11-18T04:31:23;34.35;;;13.57;;
43670;SDS011;29267;50.906;7.248;2023-11-18T04:33:49;41.88;;;14.98;;
43670;SDS011;29267;50.906;7.248;2023-11-18T04:36:15;36.55;;;14.68;;
43670;SDS011;29267;50.906;7.248;2023-11-18T04:38:42;40.67;;;15.68;;
43670;SDS011;29267;50.906;7.248;2023-11-18T04:41:08;35.35;;;14.10;;
43670;SDS011;29267;50.906;7.248;2023-11-18T04:43:34;39.03;;;15.85;;
43670;SDS011;29267;50.906;7.248;2023-11-18T04:46:00;34.60;;;15.40;;
43670;SDS011;29267;50.906;7.248;2023-11-18T04:48:26;38.90;;;15.95;;
43670;SDS011;29267;50.906;7.248;2023-11-18T04:50:52;41.75;;;16.02;;
43670;SDS011;29267;50.906;7.248;2023-11-18T04:53:17;40.03;;;15.38;;
43670;SDS011;29267;50.906;7.248;2023-11-18T04:55:43;40.25;;;15.27;;
43670;SDS011;29267;50.906;7.248;2023-11-18T04:58:09;44.78;;;15.68;;
43670;SDS011;29267;50.906;7.248;2023-11-18T05:00:38;45.83;;;15.77;;
43670;SDS011;29267;50.906;7.248;2023-11-18T05:03:04;38.00;;;15.02;;
43670;SDS011;29267;50.906;7.248;2023-11-18T05:05:34;34.88;;;14.45;;
43670;SDS011;29267;50.906;7.248;2023-11-18T05:08:04;44.38;;;15.30;;
43670;SDS011;29267;50.906;7.248;2023-11-18T05:10:34;47.17;;;15.93;;
43670;SDS011;29267;50.906;7.248;2023-11-18T05:13:00;43.30;;;16.55;;
43670;SDS011;29267;50.906;7.248;2023-11-18T05:15:26;40.53;;;15.95;;
43670;SDS011;29267;50.906;7.248;2023-11-18T05:17:52;40.40;;;15.40;;
43670;SDS011;29267;50.906;7.248;2023-11-18T05:20:19;40.05;;;15.90;;
43670;SDS011;29267;50.906;7.248;2023-11-18T05:22:45;41.33;;;17.23;;
43670;SDS011;29267;50.906;7.248;2023-11-18T05:25:12;51.65;;;16.88;;
43670;SDS011;29267;50.906;7.248;2023-11-18T05:27:37;46.13;;;16.33;;
43670;SDS011;29267;50.906;7.248;2023-11-18T05:30:09;45.85;;;15.95;;
43670;SDS011;29267;50.906;7.248;2023-11-18T05:32:36;37.20;;;14.88;;
43670;SDS011;29267;50.906;7.248;2023-11-18T05:35:03;48.20;;;15.20;;
43670;SDS011;29267;50.906;7.248;2023-11-18T05:37:30;45.13;;;15.98;;
43670;SDS011;29267;50.906;7.248;2023-11-18T05:40:01;48.20;;;15.55;;
43670;SDS011;29267;50.906;7.248;2023-11-18T05:42:32;45.83;;;16.98;;
43670;SDS011;29267;50.906;7.248;2023-11-18T05:45:05;44.95;;;15.32;;
43670;SDS011;29267;50.906;7.248;2023-11-18T05:47:42;36.65;;;15.80;;
43670;SDS011;29267;50.906;7.248;2023-11-18T05:50:08;42.15;;;15.75;;
43670;SDS011;29267;50.906;7.248;2023-11-18T05:52:34;45.35;;;17.20;;
43670;SDS011;29267;50.906;7.248;2023-11-18T05:55:00;42.20;;;15.65;;
43670;SDS011;29267;50.906;7.248;2023-11-18T05:57:26;42.47;;;15.18;;
43670;SDS011;29267;50.906;7.248;2023-11-18T05:59:52;40.33;;;15.68;;
43670;SDS011;29267;50.906;7.248;2023-11-18T06:02:18;39.53;;;15.02;;
43670;SDS011;29267;50.906;7.248;2023-11-18T06:04:44;43.88;;;15.77;;
43670;SDS011;29267;50.906;7.248;2023-11-18T06:07:10;38.00;;;14.38;;
43670;SDS011;29267;50.906;7.248;2023-11-18T06:09:38;34.00;;;14.43;;
43670;SDS011;29267;50.906;7.248;2023-11-18T06:12:07;43.58;;;15.85;;
43670;SDS011;29267;50.906;7.248;2023-11-18T06:14:36;39.05;;;15.48;;
43670;SDS011;29267;50.906;7.248;2023-11-18T06:17:02;46.15;;;16.85;;
43670;SDS011;29267;50.906;7.248;2023-11-18T06:19:28;37.95;;;14.80;;
43670;SDS011;29267;50.906;7.248;2023-11-18T06:21:54;37.78;;;15.38;;
43670;SDS011;29267;50.906;7.248;2023-11-18T06:24:20;40.58;;;15.05;;
43670;SDS011;29267;50.906;7.248;2023-11-18T06:26:46;31.00;;;13.68;;
43670;SDS011;29267;50.906;7.248;2023-11-18T06:29:14;37.03;;;14.45;;
43670;SDS011;29267;50.906;7.248;2023-11-18T06:31:41;35.13;;;14.25;;
43670;SDS011;29267;50.906;7.248;2023-11-18T06:34:07;34.58;;;14.13;;
43670;SDS011;29267;50.906;7.248;2023-11-18T06:36:33;43.33;;;16.20;;
43670;SDS011;29267;50.906;7.248;2023-11-18T06:38:59;34.78;;;13.60;;
43670;SDS011;29267;50.906;7.248;2023-11-18T06:41:25;37.92;;;14.55;;
43670;SDS011;29267;50.906;7.248;2023-11-18T06:43:58;33.88;;;14.73;;
43670;SDS011;29267;50.906;7.248;2023-11-18T06:48:57;32.33;;;14.57;;
43670;SDS011;29267;50.906;7.248;2023-11-18T06:51:25;36.10;;;13.50;;
43670;SDS011;29267;50.906;7.248;2023-11-18T06:53:52;30.98;;;14.85;;
43670;SDS011;29267;50.906;7.248;2023-11-18T06:56:25;34.30;;;12.70;;
43670;SDS011;29267;50.906;7.248;2023-11-18T06:58:52;36.72;;;12.90;;
43670;SDS011;29267;50.906;7.248;2023-11-18T07:01:18;28.33;;;12.95;;
43670;SDS011;29267;50.906;7.248;2023-11-18T07:03:45;31.00;;;12.40;;
43670;SDS011;29267;50.906;7.248;2023-11-18T07:06:18;30.90;;;13.70;;
43670;SDS011;29267;50.906;7.248;2023-11-18T07:08:50;33.90;;;13.55;;
43670;SDS011;29267;50.906;7.248;2023-11-18T07:11:16;32.50;;;13.77;;
43670;SDS011;29267;50.906;7.248;2023-11-18T07:13:43;31.40;;;13.10;;
43670;SDS011;29267;50.906;7.248;2023-11-18T07:16:09;33.08;;;12.82;;
43670;SDS011;29267;50.906;7.248;2023-11-18T07:18:35;37.75;;;12.98;;
43670;SDS011;29267;50.906;7.248;2023-11-18T07:21:02;29.00;;;12.00;;
43670;SDS011;29267;50.906;7.248;2023-11-18T07:23:33;27.10;;;12.15;;
43670;SDS011;29267;50.906;7.248;2023-11-18T07:25:59;31.02;;;13.15;;
43670;SDS011;29267;50.906;7.248;2023-11-18T07:28:25;26.55;;;12.68;;
43670;SDS011;29267;50.906;7.248;2023-11-18T07:30:52;30.23;;;13.52;;
43670;SDS011;29267;50.906;7.248;2023-11-18T07:33:18;31.42;;;12.32;;
43670;SDS011;29267;50.906;7.248;2023-11-18T07:35:45;24.65;;;11.18;;
43670;SDS011;29267;50.906;7.248;2023-11-18T07:38:12;30.17;;;13.65;;
43670;SDS011;29267;50.906;7.248;2023-11-18T07:40:38;26.63;;;11.57;;
43670;SDS011;29267;50.906;7.248;2023-11-18T07:43:07;27.35;;;11.73;;
43670;SDS011;29267;50.906;7.248;2023-11-18T07:45:34;30.00;;;13.25;;
43670;SDS011;29267;50.906;7.248;2023-11-18T07:48:06;26.70;;;12.75;;
43670;SDS011;29267;50.906;7.248;2023-11-18T07:50:35;29.40;;;13.52;;
43670;SDS011;29267;50.906;7.248;2023-11-18T07:53:05;24.02;;;11.93;;
43670;SDS011;29267;50.906;7.248;2023-11-18T07:55:31;29.52;;;13.20;;
43670;SDS011;29267;50.906;7.248;2023-11-18T07:58:04;26.75;;;12.40;;
43670;SDS011;29267;50.906;7.248;2023-11-18T08:00:40;22.92;;;11.50;;
43670;SDS011;29267;50.906;7.248;2023-11-18T08:03:07;27.42;;;11.90;;
43670;SDS011;29267;50.906;7.248;2023-11-18T08:05:43;26.42;;;12.40;;
43670;SDS011;29267;50.906;7.248;2023-11-18T08:08:13;23.23;;;11.85;;
43670;SDS011;29267;50.906;7.248;2023-11-18T08:10:42;26.55;;;12.07;;
43670;SDS011;29267;50.906;7.248;2023-11-18T08:13:09;22.63;;;10.35;;
43670;SDS011;29267;50.906;7.248;2023-11-18T08:15:39;25.15;;;10.77;;
43670;SDS011;29267;50.906;7.248;2023-11-18T08:18:06;28.55;;;11.07;;
43670;SDS011;29267;50.906;7.248;2023-11-18T08:20:35;24.40;;;11.07;;
43670;SDS011;29267;50.906;7.248;2023-11-18T08:23:01;23.52;;;10.20;;
43670;SDS011;29267;50.906;7.248;2023-11-18T08:25:26;19.75;;;10.30;;
43670;SDS011;29267;50.906;7.248;2023-11-18T08:27:52;23.15;;;11.02;;
43670;SDS011;29267;50.906;7.248;2023-11-18T08:30:18;27.27;;;11.38;;
43670;SDS011;29267;50.906;7.248;2023-11-18T08:32:45;24.15;;;11.77;;
43670;SDS011;29267;50.906;7.248;2023-11-18T08:35:12;19.00;;;9.40;;
43670;SDS011;29267;50.906;7.248;2023-11-18T08:37:39;20.27;;;10.20;;
43670;SDS011;29267;50.906;7.248;2023-11-18T08:40:06;22.67;;;9.73;;
43670;SDS011;29267;50.906;7.248;2023-11-18T08:42:45;23.10;;;10.32;;
43670;SDS011;29267;50.906;7.248;2023-11-18T08:47:52;20.48;;;9.70;;
43670;SDS011;29267;50.906;7.248;2023-11-18T08:50:18;17.55;;;8.90;;
43670;SDS011;29267;50.906;7.248;2023-11-18T08:52:44;23.67;;;10.45;;
43670;SDS011;29267;50.906;7.248;2023-11-18T08:55:18;19.02;;;9.15;;
43670;SDS011;29267;50.906;7.248;2023-11-18T08:57:50;20.50;;;10.85;;
43670;SDS011;29267;50.906;7.248;2023-11-18T09:00:29;19.58;;;9.82;;
43670;SDS011;29267;50.906;7.248;2023-11-18T09:03:11;19.25;;;9.35;;
43670;SDS011;29267;50.906;7.248;2023-11-18T09:05:50;18.08;;;10.00;;
43670;SDS011;29267;50.906;7.248;2023-11-18T09:08:31;17.15;;;9.07;;
43670;SDS011;29267;50.906;7.248;2023-11-18T09:11:01;20.83;;;9.52;;
43670;SDS011;29267;50.906;7.248;2023-11-18T09:13:30;17.30;;;9.10;;
43670;SDS011;29267;50.906;7.248;2023-11-18T09:15:57;18.00;;;9.70;;
43670;SDS011;29267;50.906;7.248;2023-11-18T09:18:25;17.15;;;8.30;;
43670;SDS011;29267;50.906;7.248;2023-11-18T09:20:52;23.20;;;13.68;;
43670;SDS011;29267;50.906;7.248;2023-11-18T09:23:24;19.33;;;10.55;;
43670;SDS011;29267;50.906;7.248;2023-11-18T09:25:52;18.73;;;10.50;;
43670;SDS011;29267;50.906;7.248;2023-11-18T09:28:23;16.95;;;10.20;;
43670;SDS011;29267;50.906;7.248;2023-11-18T09:30:50;14.80;;;8.10;;
43670;SDS011;29267;50.906;7.248;2023-11-18T09:33:22;22.30;;;11.93;;
43670;SDS011;29267;50.906;7.248;2023-11-18T09:35:58;17.83;;;11.15;;
43670;SDS011;29267;50.906;7.248;2023-11-18T09:38:31;30.83;;;17.98;;
43670;SDS011;29267;50.906;7.248;2023-11-18T09:40:58;16.23;;;9.70;;
43670;SDS011;29267;50.906;7.248;2023-11-18T09:43:28;15.50;;;8.38;;
43670;SDS011;29267;50.906;7.248;2023-11-18T09:46:01;20.20;;;10.98;;
43670;SDS011;29267;50.906;7.248;2023-11-18T09:48:46;13.50;;;8.68;;
43670;SDS011;29267;50.906;7.248;2023-11-18T09:51:15;15.57;;;7.93;;
43670;SDS011;29267;50.906;7.248;2023-11-18T09:53:52;14.60;;;8.10;;
43670;SDS011;29267;50.906;7.248;2023-11-18T09:59:05;14.10;;;6.70;;
43670;SDS011;29267;50.906;7.248;2023-11-18T10:01:40;12.48;;;7.45;;
43670;SDS011;29267;50.906;7.248;2023-11-18T10:04:12;14.77;;;7.45;;
43670;SDS011;29267;50.906;7.248;2023-11-18T10:06:43;15.15;;;7.00;;
43670;SDS011;29267;50.906;7.248;2023-11-18T10:09:10;13.05;;;7.90;;
43670;SDS011;29267;50.906;7.248;2023-11-18T10:11:48;12.55;;;6.63;;
43670;SDS011;29267;50.906;7.248;2023-11-18T10:14:14;16.27;;;7.05;;
43670;SDS011;29267;50.906;7.248;2023-11-18T10:16:44;10.75;;;5.93;;
43670;SDS011;29267;50.906;7.248;2023-11-18T10:19:12;12.13;;;7.30;;
43670;SDS011;29267;50.906;7.248;2023-11-18T10:21:39;12.02;;;6.82;;
43670;SDS011;29267;50.906;7.248;2023-11-18T10:24:06;12.60;;;6.70;;
43670;SDS011;29267;50.906;7.248;2023-11-18T10:26:45;12.40;;;6.07;;
43670;SDS011;29267;50.906;7.248;2023-11-18T10:29:19;9.73;;;5.75;;
43670;SDS011;29267;50.906;7.248;2023-11-18T10:31:45;10.82;;;5.57;;
43670;SDS011;29267;50.906;7.248;2023-11-18T10:34:11;9.90;;;5.63;;
43670;SDS011;29267;50.906;7.248;2023-11-18T10:36:40;10.88;;;5.68;;
43670;SDS011;29267;50.906;7.248;2023-11-18T10:39:10;10.45;;;6.32;;
43670;SDS011;29267;50.906;7.248;2023-11-18T10:41:41;11.00;;;6.63;;
43670;SDS011;29267;50.906;7.248;2023-11-18T10:44:08;12.65;;;6.68;;
43670;SDS011;29267;50.906;7.248;2023-11-18T10:46:41;13.13;;;6.05;;
43670;SDS011;29267;50.906;7.248;2023-11-18T10:49:16;15.38;;;5.55;;
43670;SDS011;29267;50.906;7.248;2023-11-18T10:51:42;14.15;;;5.00;;
43670;SDS011;29267;50.906;7.248;2023-11-18T10:54:12;11.27;;;5.50;;
43670;SDS011;29267;50.906;7.248;2023-11-18T10:56:50;8.55;;;4.78;;
43670;SDS011;29267;50.906;7.248;2023-11-18T10:59:32;8.60;;;5.18;;
43670;SDS011;29267;50.906;7.248;2023-11-18T11:01:58;9.60;;;5.80;;
43670;SDS011;29267;50.906;7.248;2023-11-18T11:04:23;9.20;;;5.28;;
43670;SDS011;29267;50.906;7.248;2023-11-18T11:06:50;8.90;;;5.28;;
43670;SDS011;29267;50.906;7.248;2023-11-18T11:09:21;10.63;;;4.57;;
43670;SDS011;29267;50.906;7.248;2023-11-18T11:12:00;9.35;;;5.60;;
43670;SDS011;29267;50.906;7.248;2023-11-18T11:14:45;9.15;;;5.05;;
43670;SDS011;29267;50.906;7.248;2023-11-18T11:17:29;7.65;;;4.15;;
43670;SDS011;29267;50.906;7.248;2023-11-18T11:25:35;9.32;;;4.63;;
43670;SDS011;29267;50.906;7.248;2023-11-18T11:28:22;7.45;;;4.55;;
43670;SDS011;29267;50.906;7.248;2023-11-18T11:34:09;8.70;;;4.13;;
43670;SDS011;29267;50.906;7.248;2023-11-18T11:36:49;7.40;;;4.93;;
43670;SDS011;29267;50.906;7.248;2023-11-18T11:39:17;13.45;;;5.97;;
43670;SDS011;29267;50.906;7.248;2023-11-18T11:41:51;15.30;;;5.00;;
43670;SDS011;29267;50.906;7.248;2023-11-18T11:44:21;10.27;;;5.50;;
43670;SDS011;29267;50.906;7.248;2023-11-18T11:46:54;11.73;;;6.03;;
43670;SDS011;29267;50.906;7.248;2023-11-18T11:49:21;13.60;;;5.55;;
43670;SDS011;29267;50.906;7.248;2023-11-18T11:54:42;12.80;;;6.13;;
43670;SDS011;29267;50.906;7.248;2023-11-18T11:57:10;14.63;;;6.78;;
43670;SDS011;29267;50.906;7.248;2023-11-18T12:02:24;8.50;;;4.82;;
43670;SDS011;29267;50.906;7.248;2023-11-18T12:07:31;11.38;;;5.75;;
43670;SDS011;29267;50.906;7.248;2023-11-18T12:10:05;13.38;;;6.43;;
43670;SDS011;29267;50.906;7.248;2023-11-18T12:12:38;10.52;;;5.63;;
43670;SDS011;29267;50.906;7.248;2023-11-18T12:15:05;12.85;;;6.25;;
43670;SDS011;29267;50.906;7.248;2023-11-18T12:20:39;10.80;;;5.85;;
43670;SDS011;29267;50.906;7.248;2023-11-18T12:23:28;18.67;;;6.38;;
43670;SDS011;29267;50.906;7.248;2023-11-18T12:25:56;15.30;;;7.07;;
43670;SDS011;29267;50.906;7.248;2023-11-18T12:28:27;10.18;;;5.75;;
43670;SDS011;29267;50.906;7.248;2023-11-18T12:30:56;12.73;;;5.57;;
43670;SDS011;29267;50.906;7.248;2023-11-18T12:33:22;12.38;;;5.57;;
43670;SDS011;29267;50.906;7.248;2023-11-18T12:41:35;11.93;;;5.85;;
43670;SDS011;29267;50.906;7.248;2023-11-18T12:49:20;11.30;;;5.25;;
43670;SDS011;29267;50.906;7.248;2023-11-18T12:51:51;9.60;;;5.03;;
43670;SDS011;29267;50.906;7.248;2023-11-18T12:54:22;10.05;;;4.68;;
43670;SDS011;29267;50.906;7.248;2023-11-18T12:56:55;14.45;;;4.93;;
43670;SDS011;29267;50.906;7.248;2023-11-18T12:59:21;10.48;;;5.93;;
43670;SDS011;29267;50.906;7.248;2023-11-18T13:01:48;8.55;;;4.40;;
43670;SDS011;29267;50.906;7.248;2023-11-18T13:04:18;11.40;;;4.90;;
43670;SDS011;29267;50.906;7.248;2023-11-18T13:06:47;13.73;;;4.93;;
43670;SDS011;29267;50.906;7.248;2023-11-18T13:09:14;9.88;;;6.82;;
43670;SDS011;29267;50.906;7.248;2023-11-18T13:11:56;8.48;;;4.45;;
43670;SDS011;29267;50.906;7.248;2023-11-18T13:14:27;11.43;;;4.72;;
43670;SDS011;29267;50.906;7.248;2023-11-18T13:16:55;9.57;;;4.97;;
43670;SDS011;29267;50.906;7.248;2023-11-18T13:19:25;10.55;;;6.15;;
43670;SDS011;29267;50.906;7.248;2023-11-18T13:21:51;10.40;;;4.80;;
43670;SDS011;29267;50.906;7.248;2023-11-18T13:24:21;20.08;;;4.97;;
43670;SDS011;29267;50.906;7.248;2023-11-18T13:26:47;9.55;;;5.13;;
43670;SDS011;29267;50.906;7.248;2023-11-18T13:29:13;10.77;;;3.90;;
43670;SDS011;29267;50.906;7.248;2023-11-18T13:31:41;8.43;;;4.13;;
43670;SDS011;29267;50.906;7.248;2023-11-18T13:34:08;12.63;;;5.00;;
43670;SDS011;29267;50.906;7.248;2023-11-18T13:36:35;7.15;;;3.83;;
43670;SDS011;29267;50.906;7.248;2023-11-18T13:39:02;8.63;;;4.18;;
43670;SDS011;29267;50.906;7.248;2023-11-18T13:41:31;14.52;;;4.35;;
43670;SDS011;29267;50.906;7.248;2023-11-18T13:43:57;10.15;;;4.05;;
43670;SDS011;29267;50.906;7.248;2023-11-18T13:46:23;5.95;;;3.65;;
43670;SDS011;29267;50.906;7.248;2023-11-18T13:48:53;6.45;;;3.53;;
43670;SDS011;29267;50.906;7.248;2023-11-18T13:51:19;6.32;;;3.28;;
43670;SDS011;29267;50.906;7.248;2023-11-18T13:53:47;5.43;;;3.10;;
43670;SDS011;29267;50.906;7.248;2023-11-18T13:56:13;35.63;;;13.43;;
43670;SDS011;29267;50.906;7.248;2023-11-18T13:58:41;96.90;;;41.65;;
43670;SDS011;29267;50.906;7.248;2023-11-18T14:01:09;25.30;;;13.70;;
43670;SDS011;29267;50.906;7.248;2023-11-18T14:03:40;9.65;;;4.45;;
43670;SDS011;29267;50.906;7.248;2023-11-18T14:06:09;13.80;;;3.47;;
43670;SDS011;29267;50.906;7.248;2023-11-18T14:08:36;8.45;;;3.70;;
43670;SDS011;29267;50.906;7.248;2023-11-18T14:11:02;9.27;;;3.80;;
43670;SDS011;29267;50.906;7.248;2023-11-18T14:13:31;10.02;;;4.20;;
43670;SDS011;29267;50.906;7.248;2023-11-18T14:15:58;11.48;;;4.03;;
43670;SDS011;29267;50.906;7.248;2023-11-18T14:18:24;7.93;;;3.55;;
43670;SDS011;29267;50.906;7.248;2023-11-18T14:20:51;9.50;;;3.80;;
43670;SDS011;29267;50.906;7.248;2023-11-18T14:23:17;11.80;;;3.50;;
43670;SDS011;29267;50.906;7.248;2023-11-18T14:25:43;10.65;;;3.90;;
43670;SDS011;29267;50.906;7.248;2023-11-18T14:28:10;9.00;;;3.65;;
43670;SDS011;29267;50.906;7.248;2023-11-18T14:30:37;10.60;;;3.92;;
43670;SDS011;29267;50.906;7.248;2023-11-18T14:33:03;7.75;;;3.95;;
43670;SDS011;29267;50.906;7.248;2023-11-18T14:35:29;25.17;;;14.18;;
43670;SDS011;29267;50.906;7.248;2023-11-18T14:37:55;8.80;;;3.70;;
43670;SDS011;29267;50.906;7.248;2023-11-18T14:40:23;10.90;;;3.25;;
43670;SDS011;29267;50.906;7.248;2023-11-18T14:42:50;11.27;;;2.90;;
43670;SDS011;29267;50.906;7.248;2023-11-18T14:45:17;9.52;;;3.95;;
43670;SDS011;29267;50.906;7.248;2023-11-18T14:47:43;8.23;;;4.32;;
43670;SDS011;29267;50.906;7.248;2023-11-18T14:50:10;15.77;;;5.43;;
43670;SDS011;29267;50.906;7.248;2023-11-18T14:52:48;20.42;;;10.43;;
43670;SDS011;29267;50.906;7.248;2023-11-18T14:55:17;21.70;;;10.15;;
43670;SDS011;29267;50.906;7.248;2023-11-18T14:57:43;11.40;;;4.30;;
43670;SDS011;29267;50.906;7.248;2023-11-18T15:00:11;6.60;;;3.67;;
43670;SDS011;29267;50.906;7.248;2023-11-18T15:02:47;6.32;;;4.15;;
43670;SDS011;29267;50.906;7.248;2023-11-18T15:05:14;7.18;;;3.80;;
43670;SDS011;29267;50.906;7.248;2023-11-18T15:07:53;6.47;;;3.45;;
43670;SDS011;29267;50.906;7.248;2023-11-18T15:10:23;7.50;;;3.50;;
43670;SDS011;29267;50.906;7.248;2023-11-18T15:12:51;8.05;;;4.25;;
43670;SDS011;29267;50.906;7.248;2023-11-18T15:15:23;8.88;;;4.60;;
43670;SDS011;29267;50.906;7.248;2023-11-18T15:18:00;9.55;;;4.60;;